createdAt,value
2023-03-23T16:01:07.812Z,43.90
2023-03-23T16:06:13.410Z,44.10
2023-03-23T16:11:31.186Z,44.40
2023-03-23T16:16:36.642Z,44.70
2023-03-23T16:21:41.598Z,44.50
2023-03-23T16:26:44.443Z,44.70
2023-03-23T16:31:47.278Z,44.80
2023-03-23T16:36:51.478Z,44.90
2023-03-23T16:41:54.324Z,44.80
2023-03-23T16:46:57.141Z,45.10
2023-03-23T16:52:01.372Z,44.80
2023-03-23T16:57:04.353Z,44.90
2023-03-23T17:02:07.191Z,44.20
2023-03-23T17:07:12.404Z,44.00
2023-03-23T17:12:15.432Z,43.90
2023-03-23T17:17:18.935Z,43.90
2023-03-23T17:22:23.086Z,43.80
2023-03-23T17:27:26.744Z,43.80
2023-03-23T17:32:29.696Z,43.90
2023-03-23T17:37:34.129Z,43.90
2023-03-23T17:42:37.159Z,44.10
2023-03-23T17:47:40.046Z,44.10
2023-03-23T17:52:44.256Z,44.00
2023-03-23T17:57:47.139Z,43.90
2023-03-23T18:02:50.073Z,44.00
2023-03-23T18:07:54.347Z,44.00
2023-03-23T18:12:57.210Z,44.30
2023-03-23T18:18:00.461Z,44.20
2023-03-23T18:23:04.805Z,44.10
2023-03-23T18:28:07.957Z,44.20
2023-03-23T18:33:10.919Z,44.20
2023-03-23T18:38:15.566Z,44.30
2023-03-23T18:43:18.814Z,44.00
2023-03-23T18:48:21.939Z,44.10
2023-03-23T18:53:26.609Z,44.10
2023-03-23T18:58:29.513Z,44.00
2023-03-23T19:03:32.600Z,44.00
2023-03-23T19:08:36.762Z,44.10
2023-03-23T19:13:47.094Z,44.10
2023-03-23T19:18:57.982Z,44.10
2023-03-23T19:24:02.641Z,43.90
2023-03-23T19:34:11.635Z,44.20
2023-03-23T19:39:15.833Z,44.20
2023-03-23T19:44:18.758Z,44.20
2023-03-23T19:49:22.033Z,44.40
2023-03-23T19:54:26.218Z,44.30
2023-03-23T19:59:29.087Z,44.40
2023-03-23T20:04:32.089Z,44.50
2023-03-23T20:09:37.522Z,44.50
2023-03-23T20:14:44.356Z,44.50
2023-03-23T20:19:47.962Z,44.60
2023-03-23T20:24:52.120Z,44.50
2023-03-23T20:29:55.886Z,44.80
2023-03-23T20:34:58.746Z,44.70
2023-03-23T20:40:03.649Z,44.90
2023-03-23T20:45:08.462Z,44.80
2023-03-23T20:50:12.425Z,44.90
2023-03-23T20:55:16.679Z,44.90
2023-03-23T21:00:19.792Z,45.00
2023-03-23T21:05:22.721Z,45.10
2023-03-23T21:10:27.846Z,45.00
2023-03-23T21:15:31.231Z,45.30
2023-03-23T21:20:34.841Z,45.10
2023-03-23T21:25:39.275Z,45.30
2023-03-23T21:30:45.522Z,45.20
2023-03-23T21:35:48.778Z,45.30
2023-03-23T21:40:53.196Z,45.30
2023-03-23T21:45:57.272Z,45.40
2023-03-23T21:51:06.073Z,45.50
2023-03-23T21:56:12.634Z,45.90
2023-03-23T22:01:16.183Z,45.90
2023-03-23T22:06:23.331Z,46.10
2023-03-23T22:11:29.286Z,46.20
2023-03-23T22:16:32.591Z,46.30
2023-03-23T22:21:36.534Z,46.20
2023-03-23T22:26:41.334Z,46.30
2023-03-23T22:31:45.109Z,46.60
2023-03-23T22:36:48.383Z,47.00
2023-03-23T22:41:52.641Z,46.90
2023-03-23T22:46:55.782Z,47.90
2023-03-23T22:51:59.062Z,47.80
2023-03-23T22:57:04.959Z,48.10
2023-03-23T23:02:07.977Z,48.00
2023-03-23T23:07:14.269Z,48.10
2023-03-23T23:12:20.146Z,47.40
2023-03-23T23:17:23.113Z,48.10
2023-03-23T23:22:26.517Z,48.20
2023-03-23T23:27:31.352Z,47.30
2023-03-23T23:32:35.260Z,48.30
2023-03-23T23:37:38.433Z,48.10
2023-03-23T23:42:43.064Z,48.10
2023-03-23T23:47:46.741Z,48.40
2023-03-23T23:52:50.136Z,48.50
2023-03-23T23:57:54.749Z,48.30
